DW1088 Weather Reports


Display with metric or nautical units.
time (UTC)temp
F
wind
direction
speed
MPH
gust
MPH
rain 1hr
in
rain 24hr
in
rain mn
in
humidity
%
barometer
mb
20200714133304 60 19 10.0 17.0 0.00 0.00 0.00 66 1018.2
20200714132804 60 24 12.0 16.0 0.00 0.00 0.00 65 1018.2
20200714132307 60 18 10.0 15.0 0.00 0.00 0.00 65 1018.1
20200714131805 60 22 10.0 14.0 0.00 0.00 0.00 65 1018.1
20200714131303 60 6 9.0 12.0 0.00 0.00 0.00 65 1018.1
20200714130809 60 35 3.0 6.0 0.00 0.00 0.00 64 1017.9
20200714130311 60 25 7.0 10.0 0.00 0.00 0.00 64 1018.0
20200714125811 59 333 2.0 9.0 0.00 0.00 0.00 64 1017.5
20200714125304 59 22 6.0 10.0 0.00 0.00 0.00 64 1017.4
20200714124804 59 288 3.0 8.0 0.00 0.00 0.00 65 1017.6
20200714124306 59 324 4.0 12.0 0.00 0.00 0.00 64 1017.4
20200714123804 59 359 6.0 10.0 0.00 0.00 0.00 64 1016.8
20200714123304 58 306 5.0 8.0 0.00 0.00 0.00 64 1017.2
20200714122807 59 293 6.0 12.0 0.00 0.00 0.00 65 1017.2
20200714122304 59 308 2.0 9.0 0.00 0.00 0.00 64 1016.8
20200714121804 59 324 3.0 10.0 0.00 0.00 0.00 64 1016.7
20200714121303 59 347 6.0 12.0 0.00 0.00 0.00 63 1016.5
20200714120804 59 355 10.0 13.0 0.00 0.00 0.00 63 1016.5
20200714120306 59 8 8.0 12.0 0.00 0.00 0.00 63 1016.5
20200714115804 60 8 9.0 12.0 0.00 0.00 0.00 63 1016.6
20200714115304 60 347 5.0 6.0 0.00 0.00 0.00 64 1016.7
20200714114804 60 285 3.0 9.0 0.00 0.00 0.00 65 1016.9
20200714114316 60 321 3.0 9.0 0.00 0.00 0.00 66 1016.8
20200714113821 60 313 3.0 13.0 0.00 0.00 0.00 66 1016.6
20200714113304 60 344 5.0 14.0 0.00 0.00 0.00 67 1016.3
20200714112804 60 345 4.0 12.0 0.00 0.00 0.00 70 1016.4
20200714112304 61 345 3.0 8.0 0.00 0.00 0.00 74 1016.3
20200714111808 61 339 2.0 7.0 0.00 0.00 0.00 74 1016.4
20200714111304 61 298 3.0 12.0 0.00 0.00 0.00 74 1016.2
20200714110804 61 337 5.0 13.0 0.00 0.00 0.00 75 1015.7
20200714110304 61 336 7.0 17.0 0.00 0.00 0.00 76 1015.6
20200714105804 60 221 2.0 6.0 0.00 0.00 0.00 78 1015.5
20200714105303 60 151 3.0 6.0 0.00 0.00 0.00 78 1015.5
20200714104803 60 270 2.0 6.0 0.00 0.00 0.00 78 1015.6
20200714104304 60 289 3.0 9.0 0.00 0.00 0.00 79 1015.3
20200714103804 60 278 3.0 9.0 0.00 0.00 0.00 79 1015.1
20200714103303 60 321 5.0 9.0 0.00 0.00 0.00 79 1015.1
20200714102804 60 304 7.0 12.0 0.00 0.00 0.00 79 1014.6
20200714102304 60 289 6.0 9.0 0.00 0.00 0.00 78 1014.4
20200714101804 60 288 5.0 8.0 0.00 0.00 0.00 78 1014.2
20200714101303 61 288 3.0 7.0 0.00 0.00 0.00 78 1014.1
20200714100804 61 280 3.0 7.0 0.00 0.00 0.00 77 1014.2
20200714100304 61 277 3.0 8.0 0.00 0.00 0.00 77 1014.3
20200714095805 61 295 5.0 10.0 0.00 0.00 0.00 76 1014.4
20200714095304 62 296 5.0 10.0 0.00 0.00 0.00 76 1014.3
20200714094804 62 269 2.0 6.0 0.00 0.00 0.00 76 1014.2
20200714094303 62 264 1.0 3.0 0.00 0.00 0.00 75 1014.3
20200714093803 62 263 2.0 3.0 0.00 0.00 0.00 75 1014.4
20200714093303 62 292 1.0 5.0 0.00 0.00 0.00 74 1014.3
20200714092304 63 348 3.0 10.0 0.00 0.00 0.00 73 1014.2
20200714091804 63 6 4.0 10.0 0.00 0.00 0.00 72 1014.0
20200714091303 63 290 1.0 3.0 0.00 0.00 0.00 71 1014.1
20200714090804 63 314 2.0 5.0 0.00 0.00 0.00 71 1014.0
20200714090305 63 314 2.0 5.0 0.00 0.00 0.00 71 1014.0
20200714085803 64 331 3.0 8.0 0.00 0.00 0.00 70 1014.2
20200714085304 64 350 5.0 7.0 0.00 0.00 0.00 69 1014.4
20200714084804 64 329 1.0 3.0 0.00 0.00 0.00 69 1014.5
20200714084305 65 328 1.0 3.0 0.00 0.00 0.00 68 1014.5
20200714083805 65 340 0.0 2.0 0.00 0.00 0.00 67 1014.4
20200714083304 65 340 0.0 3.0 0.00 0.00 0.00 67 1014.3
20200714082804 65 344 2.0 9.0 0.00 0.00 0.00 67 1014.3
20200714082304 65 327 5.0 10.0 0.00 0.00 0.00 66 1014.1
20200714081803 65 330 5.0 10.0 0.00 0.00 0.00 65 1014.1
20200714081304 65 352 8.0 10.0 0.00 0.00 0.00 64 1014.1
20200714080804 66 350 3.0 9.0 0.00 0.00 0.00 62 1014.1
20200714080304 66 351 5.0 9.0 0.00 0.00 0.00 61 1013.9
20200714075804 66 355 2.0 9.0 0.00 0.00 0.00 60 1014.0
20200714075304 66 0 6.0 12.0 0.00 0.00 0.00 59 1014.1
20200714074804 67 117 1.0 3.0 0.00 0.00 0.00 57 1014.1
20200714074304 67 117 3.0 6.0 0.00 0.00 0.00 57 1013.7
20200714073804 67 355 3.0 5.0 0.00 0.00 0.00 57 1013.6
20200714073305 68 351 3.0 5.0 0.00 0.00 0.00 56 1013.7
20200714072804 68 20 5.0 7.0 0.00 0.00 0.00 54 1013.6
20200714072304 68 347 3.0 6.0 0.00 0.00 0.00 54 1013.8
20200714071805 68 347 3.0 8.0 0.00 0.00 0.00 55 1013.9
20200714071306 68 327 3.0 5.0 0.00 0.00 0.00 54 1014.1
20200714070803 68 286 3.0 7.0 0.00 0.00 0.00 54 1014.1
20200714070304 69 290 3.0 8.0 0.00 0.00 0.00 52 1013.9
20200714065805 69 252 2.0 6.0 0.00 0.00 0.00 51 1014.0
20200714065305 69 193 2.0 3.0 0.00 0.00 0.00 50 1013.6
20200714064805 69 190 1.0 2.0 0.00 0.00 0.00 51 1013.4
20200714064304 69 190 1.0 3.0 0.00 0.00 0.00 51 1013.4
20200714063804 69 190 2.0 3.0 0.00 0.00 0.00 51 1013.2
20200714063303 69 190 1.0 3.0 0.00 0.00 0.00 52 1013.5
20200714062804 69 190 1.0 3.0 0.00 0.00 0.00 52 1013.4
20200714062304 69 190 2.0 3.0 0.00 0.00 0.00 52 1013.4
20200714061804 69 189 2.0 3.0 0.00 0.00 0.00 53 1013.5
20200714061304 69 189 2.0 3.0 0.00 0.00 0.00 54 1013.4
20200714060828 69 189 2.0 3.0 0.00 0.00 0.00 54 1013.4
20200714060304 69 189 3.0 5.0 0.00 0.00 0.00 55 1013.4
20200714055804 69 190 3.0 3.0 0.00 0.00 0.00 55 1013.3
20200714055304 69 190 2.0 3.0 0.00 0.00 0.00 55 1013.3
20200714054804 69 190 3.0 5.0 0.00 0.00 0.00 55 1013.4
20200714054304 69 187 5.0 7.0 0.00 0.00 0.00 55 1013.2
20200714053804 69 174 4.0 9.0 0.00 0.00 0.00 55 1013.3
20200714053304 69 182 4.0 7.0 0.00 0.00 0.00 55 1013.3
20200714052804 69 184 4.0 8.0 0.00 0.00 0.00 54 1013.4
20200714052304 70 185 3.0 6.0 0.00 0.00 0.00 54 1013.5
20200714051804 70 172 4.0 7.0 0.00 0.00 0.00 53 1013.5
20200714051304 70 170 5.0 9.0 0.00 0.00 0.00 53 1013.7
20200714050804 70 159 4.0 10.0 0.00 0.00 0.00 53 1013.8
20200714050308 70 127 2.0 3.0 0.00 0.00 0.00 52 1013.9
20200714045804 70 128 3.0 5.0 0.00 0.00 0.00 53 1013.8
20200714045304 70 124 3.0 5.0 0.00 0.00 0.00 52 1013.7
20200714044803 70 163 2.0 7.0 0.00 0.00 0.00 52 1013.8
20200714044304 70 175 3.0 9.0 0.00 0.00 0.00 53 1013.9
20200714043803 70 196 4.0 7.0 0.00 0.00 0.00 53 1014.0
20200714043304 70 189 4.0 8.0 0.00 0.00 0.00 54 1014.0
20200714042804 69 187 3.0 6.0 0.00 0.00 0.00 55 1014.3
20200714042305 69 182 2.0 5.0 0.00 0.00 0.00 56 1014.6
20200714041804 69 182 2.0 3.0 0.00 0.00 0.00 56 1014.9
20200714041303 69 182 1.0 6.0 0.00 0.00 0.00 56 1015.0
20200714040804 69 178 3.0 5.0 0.00 0.00 0.00 56 1014.9
20200714040304 69 178 2.0 3.0 0.00 0.00 0.00 56 1014.7
20200714035805 69 196 2.0 3.0 0.00 0.00 0.00 56 1014.9
20200714035308 69 197 3.0 5.0 0.00 0.00 0.00 55 1014.9
20200714034804 69 198 4.0 9.0 0.00 0.00 0.00 55 1014.9
20200714034304 70 199 6.0 10.0 0.00 0.00 0.00 54 1015.1
20200714033804 70 195 4.0 7.0 0.00 0.00 0.00 53 1015.2
20200714033304 70 156 0.0 1.0 0.00 0.00 0.00 53 1014.7
20200714032803 70 156 1.0 2.0 0.00 0.00 0.00 53 1014.8
20200714032303 70 156 2.0 3.0 0.00 0.00 0.00 53 1014.8
20200714031804 70 156 2.0 3.0 0.00 0.00 0.00 53 1014.8
20200714031303 70 156 3.0 5.0 0.00 0.00 0.00 53 1014.9
20200714030804 70 156 4.0 7.0 0.00 0.00 0.00 53 1015.1
20200714030303 70 164 3.0 7.0 0.00 0.00 0.00 53 1015.4
20200714025803 70 173 5.0 6.0 0.00 0.00 0.00 53 1015.8
20200714025304 71 171 6.0 9.0 0.00 0.00 0.00 52 1016.0
20200714024804 71 181 5.0 12.0 0.00 0.00 0.00 51 1016.2
20200714024303 71 172 7.0 12.0 0.00 0.00 0.00 51 1015.9
20200714023804 71 182 5.0 10.0 0.00 0.00 0.00 50 1016.2
20200714023304 71 203 6.0 10.0 0.00 0.00 0.00 49 1016.7
20200714022804 71 197 4.0 8.0 0.00 0.00 0.00 49 1016.2
20200714022304 71 171 4.0 8.0 0.00 0.00 0.00 49 1015.7
20200714021804 72 182 5.0 9.0 0.00 0.00 0.00 48 1015.6
20200714021303 72 177 6.0 9.0 0.00 0.00 0.00 48 1015.5
20200714020803 72 134 6.0 13.0 0.00 0.00 0.00 47 1015.3
20200714020304 72 114 10.0 18.0 0.00 0.00 0.00 46 1014.6
20200714015805 72 94 9.0 20.0 0.00 0.00 0.00 46 1014.1
20200714015305 72 78 13.0 20.0 0.00 0.00 0.00 46 1014.2
20200714014806 72 87 9.0 13.0 0.00 0.00 0.00 46 1014.3
20200714014305 72 143 7.0 17.0 0.00 0.00 0.00 47 1014.6
20200714013805 72 106 10.0 17.0 0.00 0.00 0.00 46 1014.4
20200714013305 73 98 7.0 15.0 0.00 0.00 0.00 46 1014.1
20200714012805 73 70 10.0 17.0 0.00 0.00 0.00 46 1013.8
20200714012306 73 69 13.0 21.0 0.00 0.00 0.00 45 1013.7
20200714011805 73 66 15.0 26.0 0.00 0.00 0.00 44 1013.5
20200714011305 74 67 14.0 21.0 0.00 0.00 0.00 44 1013.2
20200714010805 74 56 14.0 23.0 0.00 0.00 0.00 43 1013.2
20200714010306 74 43 16.0 25.0 0.00 0.00 0.00 43 1013.3
20200714005805 74 37 16.0 24.0 0.00 0.00 0.00 43 1013.1
20200714005305 74 63 15.0 22.0 0.00 0.00 0.00 43 1013.1
20200714004805 74 47 17.0 24.0 0.00 0.00 0.00 43 1013.5
20200714004305 74 48 17.0 29.0 0.00 0.00 0.00 42 1013.3
20200714003805 74 45 20.0 31.0 0.00 0.00 0.00 42 1013.3
20200714003304 74 30 21.0 31.0 0.00 0.00 0.00 41 1013.6
20200714002805 75 14 24.0 32.0 0.00 0.00 0.00 40 1013.6
20200714002306 75 9 24.0 31.0 0.00 0.00 0.00 40 1013.5
20200714001805 75 13 24.0 33.0 0.00 0.00 0.00 40 1013.3
20200714001305 75 352 22.0 28.0 0.00 0.00 0.00 41 1013.2
20200714000804 74 16 24.0 31.0 0.00 0.00 0.00 43 1012.9
20200714000306 74 27 24.0 31.0 0.00 0.00 0.00 43 1012.9
20200713235807 75 13 27.0 35.0 0.00 0.00 0.00 42 1012.9
20200713235304 75 10 25.0 33.0 0.00 0.00 0.00 42 1012.9
20200713235224 77 13 26.0 36.0 0.00 0.00 0.00 41 1013.0
20200713235151 79 3 22.0 35.0 0.00 0.00 0.00 38 1013.0
20200713233806 80 5 16.0 24.0 0.00 0.00 0.00 36 1012.8
20200713233309 81 3 13.0 24.0 0.00 0.00 0.00 34 1012.7
20200713232805 82 348 11.0 20.0 0.00 0.00 0.00 32 1012.6
20200713232306 83 342 10.0 21.0 0.00 0.00 0.00 30 1012.4
20200713231807 83 332 8.0 14.0 0.00 0.00 0.00 31 1012.3
20200713231305 83 316 7.0 13.0 0.00 0.00 0.00 30 1012.2
20200713230805 83 332 7.0 18.0 0.00 0.00 0.00 29 1012.0
20200713230305 83 303 13.0 21.0 0.00 0.00 0.00 29 1011.9
20200713225304 83 320 7.0 18.0 0.00 0.00 0.00 30 1012.0
20200713224805 84 314 7.0 18.0 0.00 0.00 0.00 28 1012.4
20200713224305 85 307 9.0 17.0 0.00 0.00 0.00 24 1012.3
20200713223805 86 298 12.0 20.0 0.00 0.00 0.00 23 1012.6
20200713223307 87 254 18.0 35.0 0.00 0.00 0.00 21 1012.6
20200713222805 89 260 10.0 33.0 0.00 0.00 0.00 21 1012.1
20200713222311 92 251 12.0 24.0 0.00 0.00 0.00 21 1012.4
20200713221805 93 121 2.0 6.0 0.00 0.00 0.00 18 1010.9
20200713221305 92 115 2.0 6.0 0.00 0.00 0.00 18 1010.7
20200713220805 92 158 2.0 7.0 0.00 0.00 0.00 20 1010.8
20200713220407 93 128 3.0 8.0 0.00 0.00 0.00 19 1010.8
20200713215809 92 144 5.0 8.0 0.00 0.00 0.00 21 1010.8
20200713214805 93 157 5.0 8.0 0.00 0.00 0.00 20 1010.8
20200713214307 93 155 5.0 12.0 0.00 0.00 0.00 19 1010.8
20200713213805 93 130 7.0 13.0 0.00 0.00 0.00 19 1010.7
20200713213305 94 131 7.0 13.0 0.00 0.00 0.00 18 1010.6
20200713212804 95 161 7.0 14.0 0.00 0.00 0.00 19 1010.7
20200713212313 95 199 7.0 12.0 0.00 0.00 0.00 18 1010.7
20200713211805 95 138 6.0 16.0 0.00 0.00 0.00 19 1010.7
20200713211305 95 163 7.0 14.0 0.00 0.00 0.00 18 1010.8
20200713210806 95 148 6.0 10.0 0.00 0.00 0.00 19 1011.0
20200713210305 94 183 7.0 14.0 0.00 0.00 0.00 18 1011.0
20200713205804 94 190 9.0 15.0 0.00 0.00 0.00 20 1011.0
20200713205305 94 174 11.0 17.0 0.00 0.00 0.00 19 1011.1
20200713204806 94 161 7.0 15.0 0.00 0.00 0.00 19 1011.4
20200713204310 94 164 7.0 13.0 0.00 0.00 0.00 20 1011.5
20200713203805 94 174 9.0 13.0 0.00 0.00 0.00 19 1011.7
20200713203306 94 187 5.0 9.0 0.00 0.00 0.00 20 1011.7
20200713202807 92 167 5.0 10.0 0.00 0.00 0.00 20 1011.9
20200713202307 91 196 7.0 12.0 0.00 0.00 0.00 22 1012.1
20200713201805 91 196 6.0 12.0 0.00 0.00 0.00 24 1012.1
20200713201305 90 201 6.0 12.0 0.00 0.00 0.00 23 1012.3
20200713200806 90 183 5.0 8.0 0.00 0.00 0.00 24 1012.5
20200713200305 90 202 5.0 8.0 0.00 0.00 0.00 24 1012.7
20200713195810 90 195 5.0 16.0 0.00 0.00 0.00 23 1012.7
20200713195306 91 186 13.0 21.0 0.00 0.00 0.00 21 1012.6
20200713194805 91 181 12.0 20.0 0.00 0.00 0.00 22 1012.5
20200713194304 92 190 10.0 18.0 0.00 0.00 0.00 21 1012.5
20200713193807 92 208 9.0 15.0 0.00 0.00 0.00 22 1012.6
20200713193305 93 226 5.0 12.0 0.00 0.00 0.00 23 1012.5
20200713192805 93 206 3.0 7.0 0.00 0.00 0.00 24 1012.4
20200713192316 92 130 2.0 10.0 0.00 0.00 0.00 22 1012.3
20200713191805 92 132 6.0 10.0 0.00 0.00 0.00 23 1012.4
20200713191305 91 150 7.0 12.0 0.00 0.00 0.00 23 1012.3
20200713190806 91 142 5.0 8.0 0.00 0.00 0.00 21 1012.6
20200713190313 91 158 5.0 10.0 0.00 0.00 0.00 21 1012.6
20200713185805 91 110 5.0 12.0 0.00 0.00 0.00 22 1012.7
20200713185306 90 109 5.0 12.0 0.00 0.00 0.00 21 1012.8
20200713184805 91 124 6.0 12.0 0.00 0.00 0.00 22 1013.0
20200713184305 90 78 6.0 12.0 0.00 0.00 0.00 22 1013.1
20200713183805 90 82 6.0 10.0 0.00 0.00 0.00 21 1013.2
20200713183305 89 133 3.0 7.0 0.00 0.00 0.00 21 1013.3
20200713182806 89 85 5.0 8.0 0.00 0.00 0.00 22 1013.4
20200713182305 89 117 2.0 7.0 0.00 0.00 0.00 22 1013.6
20200713181819 89 138 5.0 9.0 0.00 0.00 0.00 21 1013.5
20200713181310 90 137 3.0 12.0 0.00 0.00 0.00 22 1013.5
20200713180806 90 116 5.0 10.0 0.00 0.00 0.00 23 1013.6
20200713180305 90 50 7.0 12.0 0.00 0.00 0.00 20 1013.7
20200713175805 90 33 7.0 12.0 0.00 0.00 0.00 21 1013.9
20200713175306 89 68 6.0 12.0 0.00 0.00 0.00 23 1014.1
20200713174805 89 53 7.0 12.0 0.00 0.00 0.00 23 1014.1
20200713174304 89 46 9.0 12.0 0.00 0.00 0.00 23 1014.2
20200713173805 89 65 7.0 12.0 0.00 0.00 0.00 23 1014.3
20200713173306 89 68 7.0 10.0 0.00 0.00 0.00 22 1014.3
20200713172805 89 78 7.0 12.0 0.00 0.00 0.00 24 1014.4
20200713172306 88 17 6.0 10.0 0.00 0.00 0.00 24 1014.3
20200713171804 88 43 8.0 12.0 0.00 0.00 0.00 25 1014.3
20200713171306 88 66 7.0 12.0 0.00 0.00 0.00 25 1014.2
20200713170805 88 62 6.0 12.0 0.00 0.00 0.00 24 1014.2
20200713170307 87 28 8.0 15.0 0.00 0.00 0.00 23 1014.4
20200713165805 87 33 7.0 12.0 0.00 0.00 0.00 26 1014.4
20200713165305 87 46 6.0 12.0 0.00 0.00 0.00 27 1014.5
20200713164807 87 61 6.0 10.0 0.00 0.00 0.00 24 1014.7
20200713164305 86 33 5.0 10.0 0.00 0.00 0.00 24 1014.6
20200713163805 86 63 5.0 9.0 0.00 0.00 0.00 27 1014.7
20200713163305 86 26 3.0 8.0 0.00 0.00 0.00 30 1014.8
20200713162805 84 33 3.0 7.0 0.00 0.00 0.00 30 1014.7
20200713162306 82 47 5.0 9.0 0.00 0.00 0.00 31 1014.8
20200713161805 81 55 6.0 12.0 0.00 0.00 0.00 37 1014.8
20200713161306 80 29 6.0 14.0 0.00 0.00 0.00 37 1015.0
20200713160805 78 42 5.0 9.0 0.00 0.00 0.00 42 1014.8
20200713160304 78 72 6.0 9.0 0.00 0.00 0.00 42 1014.8
20200713155805 77 60 6.0 9.0 0.00 0.00 0.00 44 1014.7
20200713155305 76 12 6.0 12.0 0.00 0.00 0.00 45 1014.7
20200713154804 75 356 8.0 10.0 0.00 0.00 0.00 50 1014.8
20200713154306 74 46 6.0 9.0 0.00 0.00 0.00 50 1014.7
20200713153805 74 118 3.0 6.0 0.00 0.00 0.00 50 1014.7
20200713153305 74 124 3.0 3.0 0.00 0.00 0.00 50 1014.8
20200713152813 73 117 3.0 3.0 0.00 0.00 0.00 49 1014.8
20200713152306 73 117 3.0 6.0 0.00 0.00 0.00 49 1014.7
20200713151805 73 157 3.0 5.0 0.00 0.00 0.00 48 1014.7
20200713151304 73 232 3.0 5.0 0.00 0.00 0.00 48 1014.9
20200713150804 72 229 2.0 3.0 0.00 0.00 0.00 49 1015.1
20200713150305 72 228 3.0 8.0 0.00 0.00 0.00 49 1015.3
20200713145805 72 5 3.0 8.0 0.00 0.00 0.00 51 1014.9
20200713145305 72 10 3.0 9.0 0.00 0.00 0.00 50 1014.8
20200713144805 72 61 5.0 6.0 0.00 0.00 0.00 49 1014.5
20200713144304 72 96 6.0 8.0 0.00 0.00 0.00 50 1014.4
20200713143806 71 113 5.0 7.0 0.00 0.00 0.00 51 1014.6
20200713143305 71 122 5.0 8.0 0.00 0.00 0.00 52 1014.6
20200713142805 71 73 5.0 8.0 0.00 0.00 0.00 53 1014.6
20200713142304 71 118 3.0 6.0 0.00 0.00 0.00 52 1014.6
20200713141805 70 177 2.0 5.0 0.00 0.00 0.00 51 1014.7
20200713141308 70 212 3.0 5.0 0.00 0.00 0.00 52 1015.1
20200713140805 69 216 3.0 6.0 0.00 0.00 0.00 53 1015.2
20200713140305 67 271 3.0 8.0 0.00 0.00 0.00 58 1015.4
20200713135805 67 168 2.0 5.0 0.00 0.00 0.00 58 1015.4
20200713135304 68 167 1.0 8.0 0.00 0.00 0.00 60 1015.2
20200713134805 67 284 5.0 7.0 0.00 0.00 0.00 55 1015.3
20200713134305 66 229 1.0 3.0 0.00 0.00 0.00 61 1015.3
20200713133806 66 229 1.0 3.0 0.00 0.00 0.00 59 1015.5